Time;durP1;ratioP1;P1;durP2;ratioP2;P2;SDS_P1;SDS_P2;PMS_P1;PMS_P2;Temp;Humidity;BMP_temperature;BMP_pressure;BME280_temperature;BME280_humidity;BME280_pressure;Samples;Min_cycle;Max_cycle;Signal;HPM_P1;HPM_P2
2023/12/09 00:00:30;;;;;;;88.72;25.13;;;;;;;;;;5035247;28;20114;-70
2023/12/09 00:02:56;;;;;;;85.38;25.45;;;;;;;;;;5052986;28;20037;-70
2023/12/09 00:05:22;;;;;;;96.93;26.35;;;;;;;;;;5036012;28;20060;-70
2023/12/09 00:07:48;;;;;;;95.10;27.65;;;;;;;;;;5053648;28;20501;-71
2023/12/09 00:10:14;;;;;;;92.03;26.45;;;;;;;;;;5052477;28;20044;-71
2023/12/09 00:12:40;;;;;;;80.95;24.88;;;;;;;;;;5051272;28;20036;-71
2023/12/09 00:15:06;;;;;;;83.28;25.67;;;;;;;;;;5048416;28;20508;-71
2023/12/09 00:17:32;;;;;;;89.13;26.02;;;;;;;;;;5053014;28;20032;-71
2023/12/09 00:19:59;;;;;;;84.63;25.33;;;;;;;;;;5052963;28;20398;-72
2023/12/09 00:22:25;;;;;;;83.90;24.73;;;;;;;;;;5052495;28;20041;-71
2023/12/09 00:24:51;;;;;;;85.72;25.45;;;;;;;;;;5055142;28;20037;-71
2023/12/09 00:27:17;;;;;;;91.72;25.95;;;;;;;;;;5051860;28;20123;-71
2023/12/09 00:29:43;;;;;;;80.63;25.55;;;;;;;;;;5052039;28;20431;-71
2023/12/09 00:32:08;;;;;;;85.70;25.08;;;;;;;;;;5051677;28;20116;-71
2023/12/09 00:34:35;;;;;;;83.75;26.77;;;;;;;;;;5052865;28;20052;-71
2023/12/09 00:37:01;;;;;;;83.78;25.20;;;;;;;;;;5052439;28;20399;-71
2023/12/09 00:39:27;;;;;;;82.13;24.95;;;;;;;;;;5052907;28;20044;-71
2023/12/09 00:41:53;;;;;;;83.15;24.75;;;;;;;;;;5033814;28;20465;-71
2023/12/09 00:44:20;;;;;;;88.57;25.17;;;;;;;;;;5052741;28;20063;-71
2023/12/09 00:46:47;;;;;;;78.68;23.50;;;;;;;;;;5052110;28;20079;-71
2023/12/09 00:49:13;;;;;;;81.78;24.35;;;;;;;;;;5052788;28;20056;-71
2023/12/09 00:51:39;;;;;;;71.40;23.83;;;;;;;;;;5051781;28;20041;-71
2023/12/09 00:54:05;;;;;;;76.72;23.98;;;;;;;;;;5052677;28;20112;-71
2023/12/09 00:56:31;;;;;;;74.63;23.13;;;;;;;;;;5052102;28;20518;-71
2023/12/09 00:58:57;;;;;;;76.55;23.17;;;;;;;;;;5052754;28;20044;-71
2023/12/09 01:01:23;;;;;;;79.68;23.77;;;;;;;;;;5051163;28;20052;-71
2023/12/09 01:03:49;;;;;;;66.25;20.30;;;;;;;;;;5051884;28;20388;-71
2023/12/09 01:06:15;;;;;;;66.55;21.55;;;;;;;;;;5052397;28;20115;-71
2023/12/09 01:08:41;;;;;;;58.17;21.40;;;;;;;;;;5051015;28;20033;-71
2023/12/09 01:11:07;;;;;;;73.75;22.55;;;;;;;;;;5031988;28;20112;-71
2023/12/09 01:13:33;;;;;;;76.57;24.98;;;;;;;;;;5051546;28;20071;-71
2023/12/09 01:15:59;;;;;;;72.57;21.95;;;;;;;;;;5047165;28;20083;-71
2023/12/09 01:18:25;;;;;;;68.30;22.52;;;;;;;;;;5052575;28;20633;-71
2023/12/09 01:20:51;;;;;;;60.42;22.35;;;;;;;;;;5051425;28;20040;-71
2023/12/09 01:23:16;;;;;;;72.03;23.88;;;;;;;;;;5052041;28;20041;-71
2023/12/09 01:25:42;;;;;;;67.50;22.52;;;;;;;;;;5051157;28;20033;-71
2023/12/09 01:28:08;;;;;;;65.13;21.95;;;;;;;;;;5068216;22;20060;-71
2023/12/09 01:30:34;;;;;;;70.70;20.88;;;;;;;;;;5056429;28;20060;-71
2023/12/09 01:33:00;;;;;;;64.90;19.30;;;;;;;;;;5060837;28;20047;-72
2023/12/09 01:35:26;;;;;;;66.97;21.92;;;;;;;;;;5058790;28;20042;-72
2023/12/09 01:37:52;;;;;;;72.22;22.85;;;;;;;;;;5051584;28;20040;-72
2023/12/09 01:40:18;;;;;;;69.43;22.48;;;;;;;;;;5055414;28;20049;-72
2023/12/09 01:42:44;;;;;;;64.05;21.33;;;;;;;;;;5055765;28;20401;-71
2023/12/09 01:45:10;;;;;;;66.03;21.50;;;;;;;;;;5052914;28;20049;-72
2023/12/09 01:47:37;;;;;;;72.32;21.85;;;;;;;;;;5050074;28;20483;-72
2023/12/09 01:50:04;;;;;;;125.82;42.50;;;;;;;;;;5049820;28;20044;-71
2023/12/09 01:52:31;;;;;;;64.10;21.05;;;;;;;;;;5052778;28;20045;-72
2023/12/09 01:54:57;;;;;;;56.70;20.27;;;;;;;;;;5053518;28;20056;-71
2023/12/09 01:57:24;;;;;;;60.50;20.05;;;;;;;;;;5050250;28;20041;-71
2023/12/09 01:59:50;;;;;;;62.42;20.90;;;;;;;;;;5055282;28;20118;-71
2023/12/09 02:02:16;;;;;;;66.35;19.40;;;;;;;;;;5054528;28;20036;-71
2023/12/09 02:04:42;;;;;;;71.07;23.52;;;;;;;;;;5054570;28;20041;-71
2023/12/09 02:07:08;;;;;;;62.47;19.52;;;;;;;;;;5049478;28;20029;-71
2023/12/09 02:09:34;;;;;;;60.83;19.83;;;;;;;;;;5052863;28;20514;-71
2023/12/09 02:12:10;;;;;;;55.08;19.83;;;;;;;;;;5051301;28;20028;-71
2023/12/09 02:14:39;;;;;;;62.70;19.30;;;;;;;;;;5050715;28;20098;-71
2023/12/09 02:17:25;;;;;;;63.95;21.13;;;;;;;;;;5059245;28;20187;-71
2023/12/09 02:19:51;;;;;;;56.42;20.27;;;;;;;;;;5045087;28;20099;-71
2023/12/09 02:22:17;;;;;;;58.80;20.92;;;;;;;;;;5054225;28;20072;-71
2023/12/09 02:24:43;;;;;;;58.55;20.17;;;;;;;;;;5053143;28;20029;-72
2023/12/09 02:27:13;;;;;;;56.10;18.40;;;;;;;;;;5056552;28;20070;-72
2023/12/09 02:29:47;;;;;;;55.13;19.77;;;;;;;;;;5054397;28;20452;-72
2023/12/09 02:32:14;;;;;;;56.10;19.27;;;;;;;;;;5050360;28;20395;-72
2023/12/09 02:34:41;;;;;;;58.88;20.58;;;;;;;;;;5055420;28;20044;-72
2023/12/09 02:37:08;;;;;;;58.90;18.75;;;;;;;;;;5051896;28;20037;-72
2023/12/09 02:39:34;;;;;;;57.25;19.25;;;;;;;;;;5056521;28;20041;-72
2023/12/09 02:42:00;;;;;;;56.30;19.13;;;;;;;;;;5051366;28;20084;-71
2023/12/09 02:44:26;;;;;;;59.40;18.75;;;;;;;;;;5051660;28;20033;-71
2023/12/09 02:46:56;;;;;;;60.25;20.17;;;;;;;;;;5059729;28;20048;-71
2023/12/09 02:49:22;;;;;;;66.47;20.35;;;;;;;;;;5058217;28;20521;-71
2023/12/09 02:51:48;;;;;;;57.33;18.75;;;;;;;;;;5063371;28;20037;-71
2023/12/09 02:54:14;;;;;;;53.60;18.13;;;;;;;;;;5063648;28;20552;-71
2023/12/09 02:56:40;;;;;;;57.17;18.17;;;;;;;;;;5060857;28;20048;-71
2023/12/09 02:59:06;;;;;;;57.03;19.02;;;;;;;;;;5056270;28;20048;-72
2023/12/09 03:01:32;;;;;;;54.42;18.02;;;;;;;;;;5053397;28;20102;-72
2023/12/09 03:03:58;;;;;;;61.33;18.10;;;;;;;;;;5059095;28;20036;-72
2023/12/09 03:06:24;;;;;;;52.45;19.65;;;;;;;;;;5063005;28;20040;-72
2023/12/09 03:08:50;;;;;;;60.28;19.40;;;;;;;;;;5057547;28;20499;-72
2023/12/09 03:11:16;;;;;;;52.53;17.58;;;;;;;;;;5052244;28;20090;-72
2023/12/09 03:13:41;;;;;;;56.03;18.35;;;;;;;;;;5058433;28;20041;-72
2023/12/09 03:16:08;;;;;;;53.10;18.52;;;;;;;;;;5058001;28;20262;-72
2023/12/09 03:18:34;;;;;;;53.55;17.38;;;;;;;;;;5064819;28;20406;-72
2023/12/09 03:21:00;;;;;;;50.90;17.85;;;;;;;;;;5058294;28;20093;-72
2023/12/09 03:23:26;;;;;;;52.78;17.33;;;;;;;;;;5058265;28;20041;-72
2023/12/09 03:25:52;;;;;;;62.42;18.88;;;;;;;;;;5058837;28;20037;-72
2023/12/09 03:28:18;;;;;;;54.00;18.17;;;;;;;;;;5056242;28;20040;-71
2023/12/09 03:30:44;;;;;;;49.00;16.88;;;;;;;;;;5056213;28;20044;-72
2023/12/09 03:33:10;;;;;;;50.10;16.75;;;;;;;;;;5055241;28;20048;-72
2023/12/09 03:35:36;;;;;;;56.92;17.38;;;;;;;;;;5056650;28;20050;-72
2023/12/09 03:38:02;;;;;;;46.45;16.23;;;;;;;;;;5057538;28;20033;-72
2023/12/09 03:40:28;;;;;;;46.92;15.73;;;;;;;;;;5058165;28;20376;-72
2023/12/09 03:42:54;;;;;;;52.03;15.73;;;;;;;;;;5058430;28;20064;-72
2023/12/09 03:45:19;;;;;;;47.22;15.45;;;;;;;;;;5057853;28;20107;-72
2023/12/09 03:47:46;;;;;;;46.75;15.25;;;;;;;;;;5056658;28;20068;-72
2023/12/09 03:50:12;;;;;;;48.20;15.48;;;;;;;;;;5061242;28;20041;-72
2023/12/09 03:52:38;;;;;;;50.45;16.38;;;;;;;;;;5057779;28;20043;-72
2023/12/09 03:55:04;;;;;;;46.47;15.45;;;;;;;;;;5057933;28;20087;-72
2023/12/09 03:57:30;;;;;;;41.42;14.15;;;;;;;;;;5054632;28;20047;-72
2023/12/09 03:59:56;;;;;;;46.42;14.55;;;;;;;;;;5053321;28;20507;-72
2023/12/09 04:02:22;;;;;;;47.47;14.50;;;;;;;;;;5054099;28;20037;-72
2023/12/09 04:04:48;;;;;;;49.17;15.60;;;;;;;;;;5054698;28;20410;-72
2023/12/09 04:07:14;;;;;;;43.75;15.35;;;;;;;;;;5054559;28;20075;-72
2023/12/09 04:09:41;;;;;;;55.30;16.45;;;;;;;;;;5054078;28;20037;-72
2023/12/09 04:12:07;;;;;;;51.72;15.23;;;;;;;;;;5045069;28;20049;-72
2023/12/09 04:14:33;;;;;;;40.78;14.77;;;;;;;;;;5053420;28;20037;-72
2023/12/09 04:16:59;;;;;;;39.90;13.88;;;;;;;;;;5049858;28;20070;-72
2023/12/09 04:19:25;;;;;;;49.67;14.20;;;;;;;;;;5052068;28;20049;-72
2023/12/09 04:21:51;;;;;;;41.97;14.23;;;;;;;;;;5052299;28;20044;-72
2023/12/09 04:24:17;;;;;;;39.92;15.05;;;;;;;;;;5052322;28;20515;-72
2023/12/09 04:26:43;;;;;;;45.67;14.68;;;;;;;;;;5054163;28;20115;-72
2023/12/09 04:29:09;;;;;;;50.63;14.68;;;;;;;;;;5054139;28;20033;-72
2023/12/09 04:31:35;;;;;;;54.95;14.82;;;;;;;;;;5054127;28;20403;-72
2023/12/09 04:34:01;;;;;;;42.22;14.32;;;;;;;;;;5053569;28;20049;-72
2023/12/09 04:36:27;;;;;;;43.70;14.63;;;;;;;;;;5053989;28;20573;-72
2023/12/09 04:38:53;;;;;;;45.15;15.40;;;;;;;;;;5052419;28;20480;-72
2023/12/09 04:41:19;;;;;;;42.05;12.65;;;;;;;;;;5052581;28;20045;-72
2023/12/09 04:43:45;;;;;;;40.47;14.20;;;;;;;;;;5062042;28;20037;-72
2023/12/09 04:46:11;;;;;;;40.67;14.75;;;;;;;;;;5052448;28;20132;-72
2023/12/09 04:48:37;;;;;;;43.45;13.20;;;;;;;;;;5053174;28;20041;-72
2023/12/09 04:51:03;;;;;;;45.47;13.82;;;;;;;;;;5051804;28;20082;-72
2023/12/09 04:53:29;;;;;;;44.40;13.25;;;;;;;;;;5052712;28;20047;-72
2023/12/09 04:55:55;;;;;;;57.72;15.30;;;;;;;;;;5051518;28;20450;-72
2023/12/09 04:58:21;;;;;;;49.42;14.88;;;;;;;;;;5050518;28;20041;-72
2023/12/09 05:00:47;;;;;;;46.03;15.30;;;;;;;;;;5051214;28;20041;-71
2023/12/09 05:03:13;;;;;;;42.03;14.40;;;;;;;;;;5051889;28;20076;-71
2023/12/09 05:05:39;;;;;;;46.78;14.60;;;;;;;;;;5059202;28;20041;-71
2023/12/09 05:08:05;;;;;;;39.22;14.27;;;;;;;;;;5051218;28;20033;-71
2023/12/09 05:10:31;;;;;;;33.33;13.77;;;;;;;;;;5050575;28;20062;-71
2023/12/09 05:12:57;;;;;;;40.90;14.57;;;;;;;;;;5051301;28;20055;-71
2023/12/09 05:15:23;;;;;;;44.45;14.73;;;;;;;;;;5052264;28;20048;-71
2023/12/09 05:17:49;;;;;;;32.53;13.95;;;;;;;;;;5059538;28;20556;-71
2023/12/09 05:20:15;;;;;;;37.70;13.35;;;;;;;;;;5059205;28;20048;-71
2023/12/09 05:22:41;;;;;;;41.35;14.40;;;;;;;;;;5055734;28;20040;-71
2023/12/09 05:25:07;;;;;;;49.45;13.82;;;;;;;;;;5054979;28;20125;-71
2023/12/09 05:27:33;;;;;;;50.45;14.95;;;;;;;;;;5063796;28;20033;-71
2023/12/09 05:29:59;;;;;;;38.78;14.18;;;;;;;;;;5051577;28;20127;-71
2023/12/09 05:32:25;;;;;;;40.42;12.70;;;;;;;;;;5059553;28;20044;-71
2023/12/09 05:34:51;;;;;;;33.53;12.05;;;;;;;;;;5057277;28;20471;-71
2023/12/09 05:37:17;;;;;;;48.72;14.18;;;;;;;;;;5072100;28;20129;-71
2023/12/09 05:39:43;;;;;;;49.08;14.48;;;;;;;;;;5060690;28;20136;-71
2023/12/09 05:42:09;;;;;;;38.72;13.50;;;;;;;;;;5062819;28;20090;-71
2023/12/09 05:44:35;;;;;;;46.50;14.93;;;;;;;;;;5063921;28;20060;-71
2023/12/09 05:47:01;;;;;;;43.80;14.40;;;;;;;;;;5057021;28;20041;-71
2023/12/09 05:49:27;;;;;;;41.20;14.02;;;;;;;;;;5053539;28;20044;-71
2023/12/09 05:51:53;;;;;;;40.33;13.25;;;;;;;;;;5052836;28;20075;-71
2023/12/09 05:54:18;;;;;;;39.15;13.02;;;;;;;;;;5070043;28;20534;-70
2023/12/09 05:56:48;;;;;;;38.10;12.68;;;;;;;;;;5065168;28;20045;-70
2023/12/09 05:59:14;;;;;;;41.80;14.18;;;;;;;;;;5071568;28;20044;-70
2023/12/09 06:01:40;;;;;;;37.72;13.48;;;;;;;;;;5063444;28;20037;-71
2023/12/09 06:04:06;;;;;;;44.75;13.70;;;;;;;;;;5083729;28;20045;-71
2023/12/09 06:06:32;;;;;;;36.15;12.52;;;;;;;;;;5050755;28;20036;-71
2023/12/09 06:08:58;;;;;;;38.08;14.02;;;;;;;;;;5059142;28;20090;-71
2023/12/09 06:11:25;;;;;;;49.25;14.57;;;;;;;;;;5051732;28;20043;-71
2023/12/09 06:13:51;;;;;;;45.25;13.23;;;;;;;;;;5057037;28;20048;-71
2023/12/09 06:16:20;;;;;;;50.33;13.32;;;;;;;;;;5053939;28;20048;-71
2023/12/09 06:18:46;;;;;;;41.25;12.70;;;;;;;;;;5051737;28;20040;-71
2023/12/09 06:21:22;;;;;;;42.33;12.93;;;;;;;;;;5069715;28;20040;-71
2023/12/09 06:23:48;;;;;;;44.47;12.73;;;;;;;;;;5055292;28;20037;-71
2023/12/09 06:26:14;;;;;;;30.40;11.23;;;;;;;;;;5062839;28;20097;-71
2023/12/09 06:28:40;;;;;;;33.78;12.95;;;;;;;;;;5062394;28;20041;-71
2023/12/09 06:31:06;;;;;;;37.70;12.52;;;;;;;;;;5060280;28;20044;-71
2023/12/09 06:33:32;;;;;;;41.33;12.65;;;;;;;;;;5050900;28;20041;-71
2023/12/09 06:35:58;;;;;;;35.58;10.95;;;;;;;;;;5068935;28;20040;-71
2023/12/09 06:38:25;;;;;;;35.60;11.88;;;;;;;;;;5069301;28;20127;-71
2023/12/09 06:40:51;;;;;;;44.47;12.75;;;;;;;;;;5055681;28;20037;-71
2023/12/09 06:43:17;;;;;;;33.70;11.10;;;;;;;;;;5070187;28;20044;-71
2023/12/09 06:45:43;;;;;;;46.35;11.38;;;;;;;;;;5064833;28;20041;-71
2023/12/09 06:48:09;;;;;;;31.25;10.68;;;;;;;;;;5062512;28;20407;-71
2023/12/09 06:50:35;;;;;;;31.45;10.40;;;;;;;;;;5059390;28;20071;-71
2023/12/09 06:53:01;;;;;;;35.67;11.38;;;;;;;;;;5052993;28;20457;-71
2023/12/09 06:55:27;;;;;;;29.73;9.80;;;;;;;;;;5058962;28;20052;-71
2023/12/09 06:57:53;;;;;;;33.00;10.32;;;;;;;;;;5054645;28;20124;-71
2023/12/09 07:00:19;;;;;;;26.05;9.70;;;;;;;;;;5066119;28;20037;-71
2023/12/09 07:02:45;;;;;;;31.08;10.20;;;;;;;;;;5057800;28;20562;-71
2023/12/09 07:05:13;;;;;;;29.20;10.23;;;;;;;;;;5057388;28;20063;-71
2023/12/09 07:07:39;;;;;;;32.67;10.18;;;;;;;;;;5055606;28;20095;-71
2023/12/09 07:10:05;;;;;;;31.02;10.15;;;;;;;;;;5054096;28;20051;-71
2023/12/09 07:12:32;;;;;;;32.97;9.73;;;;;;;;;;5052315;28;20044;-71
2023/12/09 07:15:00;;;;;;;32.20;9.95;;;;;;;;;;5058890;28;20045;-71
2023/12/09 07:17:26;;;;;;;27.25;9.02;;;;;;;;;;5054134;28;20080;-72
2023/12/09 07:19:52;;;;;;;28.30;9.43;;;;;;;;;;5051608;28;20569;-71
2023/12/09 07:22:25;;;;;;;27.30;9.27;;;;;;;;;;5051510;28;20037;-71
2023/12/09 07:24:51;;;;;;;25.27;8.98;;;;;;;;;;5050692;28;20566;-71
2023/12/09 07:27:17;;;;;;;30.48;8.52;;;;;;;;;;5067894;22;20314;-63
2023/12/09 07:29:44;;;;;;;31.63;9.38;;;;;;;;;;5062132;28;20431;-66
2023/12/09 07:32:10;;;;;;;23.65;8.23;;;;;;;;;;5111070;22;20056;-72
2023/12/09 07:34:36;;;;;;;24.38;8.15;;;;;;;;;;5072700;28;20076;-72
2023/12/09 07:37:03;;;;;;;30.27;8.38;;;;;;;;;;5062158;28;20056;-72
2023/12/09 07:39:29;;;;;;;29.58;8.40;;;;;;;;;;5053384;28;20073;-72
2023/12/09 07:41:55;;;;;;;32.15;7.70;;;;;;;;;;5054533;28;20584;-72
2023/12/09 07:44:21;;;;;;;25.55;7.90;;;;;;;;;;5055099;28;20044;-72
2023/12/09 07:46:47;;;;;;;25.02;6.68;;;;;;;;;;5053814;28;20055;-72
2023/12/09 07:49:13;;;;;;;26.40;6.80;;;;;;;;;;5054396;28;20056;-72
2023/12/09 07:51:39;;;;;;;23.25;6.78;;;;;;;;;;5051920;28;20582;-72
2023/12/09 07:54:05;;;;;;;30.10;7.00;;;;;;;;;;5054684;28;20128;-72
2023/12/09 07:56:31;;;;;;;22.60;6.85;;;;;;;;;;5054244;28;20116;-72
2023/12/09 07:58:57;;;;;;;24.13;6.00;;;;;;;;;;5055483;28;20510;-72
2023/12/09 08:01:23;;;;;;;17.38;5.72;;;;;;;;;;5057330;28;20029;-72
2023/12/09 08:03:49;;;;;;;26.63;6.47;;;;;;;;;;5054707;28;20527;-72
2023/12/09 08:06:16;;;;;;;20.58;5.55;;;;;;;;;;5054306;28;20032;-72
2023/12/09 08:08:42;;;;;;;16.23;5.38;;;;;;;;;;5055291;28;20498;-72
2023/12/09 08:11:07;;;;;;;21.70;5.40;;;;;;;;;;5052845;28;20168;-72
2023/12/09 08:13:34;;;;;;;23.30;5.63;;;;;;;;;;5053535;28;20041;-72
2023/12/09 08:16:00;;;;;;;18.63;5.18;;;;;;;;;;5052597;28;20041;-72
2023/12/09 08:18:26;;;;;;;17.50;5.45;;;;;;;;;;5053497;28;20060;-72
2023/12/09 08:20:52;;;;;;;15.45;5.13;;;;;;;;;;5053753;28;20040;-72
2023/12/09 08:23:18;;;;;;;23.17;4.70;;;;;;;;;;5040512;28;20759;-71
2023/12/09 08:25:44;;;;;;;25.10;5.60;;;;;;;;;;5046761;28;20041;-71
2023/12/09 08:28:11;;;;;;;23.05;5.28;;;;;;;;;;5046105;28;20095;-71
2023/12/09 08:30:39;;;;;;;21.45;4.95;;;;;;;;;;5046134;28;20399;-71
2023/12/09 08:33:04;;;;;;;13.88;3.90;;;;;;;;;;5049475;28;20072;-71
2023/12/09 08:35:30;;;;;;;17.27;4.60;;;;;;;;;;5048319;28;20645;-71
2023/12/09 08:37:56;;;;;;;15.15;4.35;;;;;;;;;;5055006;28;20387;-72
2023/12/09 08:40:22;;;;;;;19.63;4.80;;;;;;;;;;5057479;28;20053;-72
2023/12/09 08:42:48;;;;;;;21.50;5.22;;;;;;;;;;5051825;28;20317;-73
2023/12/09 08:45:17;;;;;;;16.50;4.90;;;;;;;;;;5055228;28;20041;-73
2023/12/09 08:47:43;;;;;;;18.20;4.20;;;;;;;;;;5060871;28;20068;-70
2023/12/09 08:50:09;;;;;;;12.65;4.00;;;;;;;;;;5055118;28;20047;-70
2023/12/09 08:52:35;;;;;;;15.85;4.30;;;;;;;;;;5052480;28;20048;-70
2023/12/09 08:55:01;;;;;;;20.27;5.43;;;;;;;;;;5056463;28;20044;-70
2023/12/09 08:57:28;;;;;;;17.67;4.20;;;;;;;;;;5046793;28;20514;-70
2023/12/09 08:59:53;;;;;;;16.23;4.45;;;;;;;;;;5052506;28;20580;-69
2023/12/09 09:02:20;;;;;;;11.82;3.70;;;;;;;;;;5048948;28;20051;-70
2023/12/09 09:04:46;;;;;;;16.90;4.47;;;;;;;;;;5065147;28;20401;-70
2023/12/09 09:07:12;;;;;;;12.57;3.63;;;;;;;;;;5052502;28;20073;-70
2023/12/09 09:09:39;;;;;;;15.35;4.00;;;;;;;;;;5052967;28;20403;-70
2023/12/09 09:12:06;;;;;;;15.32;4.45;;;;;;;;;;5051674;28;20045;-71
2023/12/09 09:14:32;;;;;;;16.52;3.55;;;;;;;;;;5056984;28;20049;-71
2023/12/09 09:16:58;;;;;;;15.10;3.78;;;;;;;;;;5051487;28;20044;-70
2023/12/09 09:19:24;;;;;;;18.00;3.83;;;;;;;;;;5046566;28;20052;-70
2023/12/09 09:21:52;;;;;;;18.33;3.97;;;;;;;;;;5058696;28;20036;-70
2023/12/09 09:24:18;;;;;;;16.17;3.75;;;;;;;;;;5052528;28;20124;-70
2023/12/09 09:26:44;;;;;;;16.02;3.70;;;;;;;;;;5057638;28;20542;-72
2023/12/09 09:29:12;;;;;;;17.80;3.63;;;;;;;;;;5047119;28;20041;-72
2023/12/09 09:31:38;;;;;;;15.65;3.72;;;;;;;;;;5061188;28;20120;-72
2023/12/09 09:34:04;;;;;;;14.40;3.78;;;;;;;;;;5059639;28;20072;-72
2023/12/09 09:36:30;;;;;;;15.45;4.45;;;;;;;;;;5052024;28;20062;-72
2023/12/09 09:38:56;;;;;;;16.65;3.75;;;;;;;;;;5058377;28;20116;-72
2023/12/09 09:41:42;;;;;;;14.25;3.80;;;;;;;;;;5054518;28;20047;-72
2023/12/09 09:44:11;;;;;;;13.18;3.53;;;;;;;;;;5057950;28;20047;-71
2023/12/09 09:46:39;;;;;;;19.05;3.78;;;;;;;;;;5062854;28;20037;-72
2023/12/09 09:49:05;;;;;;;17.67;3.95;;;;;;;;;;5051454;28;20488;-72
2023/12/09 09:51:32;;;;;;;16.17;3.95;;;;;;;;;;5051902;28;20044;-72
2023/12/09 09:54:03;;;;;;;14.98;3.97;;;;;;;;;;5051837;28;20101;-72
2023/12/09 09:56:29;;;;;;;;;;;;;;;;;;5053211;28;20082;-72
2023/12/09 09:58:55;;;;;;;17.80;3.97;;;;;;;;;;5059527;28;19916;-72
2023/12/09 10:01:22;;;;;;;9.30;3.92;;;;;;;;;;5051893;28;20506;-72
2023/12/09 10:03:48;;;;;;;15.00;4.10;;;;;;;;;;5051718;28;20123;-72
2023/12/09 10:06:14;;;;;;;11.18;3.80;;;;;;;;;;5051308;28;20072;-72
2023/12/09 10:08:41;;;;;;;17.90;4.05;;;;;;;;;;5051049;28;20036;-72
2023/12/09 10:11:08;;;;;;;16.58;4.30;;;;;;;;;;5043002;28;20384;-73
2023/12/09 10:13:34;;;;;;;13.75;4.03;;;;;;;;;;5051636;28;20112;-73
2023/12/09 10:16:00;;;;;;;12.82;3.47;;;;;;;;;;5050872;28;20445;-72
2023/12/09 10:18:26;;;;;;;10.70;3.22;;;;;;;;;;5050558;28;20037;-72
2023/12/09 10:20:52;;;;;;;20.40;3.45;;;;;;;;;;5051383;28;20049;-72
2023/12/09 10:23:18;;;;;;;13.13;3.70;;;;;;;;;;5051341;28;20132;-72
2023/12/09 10:25:47;;;;;;;12.77;4.13;;;;;;;;;;5050624;28;20102;-71
2023/12/09 10:28:13;;;;;;;12.38;3.70;;;;;;;;;;5051936;28;20053;-72
2023/12/09 10:30:41;;;;;;;12.95;3.13;;;;;;;;;;5055438;28;20041;-72
2023/12/09 10:33:07;;;;;;;13.23;3.72;;;;;;;;;;5050871;28;20124;-72
2023/12/09 10:35:34;;;;;;;11.27;3.35;;;;;;;;;;5051166;28;20127;-71
2023/12/09 10:38:01;;;;;;;15.57;3.80;;;;;;;;;;5049304;28;20040;-71
2023/12/09 10:40:27;;;;;;;11.52;3.65;;;;;;;;;;5055906;28;20041;-71
2023/12/09 10:42:53;;;;;;;13.23;3.40;;;;;;;;;;5051435;28;20060;-71
2023/12/09 10:45:19;;;;;;;15.55;4.22;;;;;;;;;;5061923;28;20036;-72
2023/12/09 10:47:45;;;;;;;10.95;3.55;;;;;;;;;;5050894;28;20498;-72
2023/12/09 10:50:12;;;;;;;14.10;3.30;;;;;;;;;;5053398;28;20048;-72
2023/12/09 10:52:38;;;;;;;13.27;3.38;;;;;;;;;;5057790;28;20486;-72
2023/12/09 10:55:05;;;;;;;14.50;3.35;;;;;;;;;;5053679;28;20060;-72
2023/12/09 10:57:33;;;;;;;14.30;3.60;;;;;;;;;;5051929;28;20565;-72
2023/12/09 11:00:00;;;;;;;10.63;3.42;;;;;;;;;;5052593;28;20128;-71
2023/12/09 11:02:27;;;;;;;16.17;3.28;;;;;;;;;;5050352;28;20033;-72
2023/12/09 11:04:53;;;;;;;12.75;3.25;;;;;;;;;;5048958;28;20411;-71
2023/12/09 11:07:20;;;;;;;12.00;3.50;;;;;;;;;;5057623;28;20040;-71
2023/12/09 11:09:46;;;;;;;6.55;3.03;;;;;;;;;;5051625;28;20368;-71
2023/12/09 11:12:23;;;;;;;8.40;3.08;;;;;;;;;;5055626;28;20122;-71
2023/12/09 11:14:49;;;;;;;10.90;2.88;;;;;;;;;;5051490;28;20044;-72
2023/12/09 11:17:34;;;;;;;11.55;2.90;;;;;;;;;;5054675;28;20048;-72
2023/12/09 11:20:15;;;;;;;12.23;2.88;;;;;;;;;;5053825;28;20178;-72
2023/12/09 11:22:41;;;;;;;9.55;3.25;;;;;;;;;;5054327;28;20072;-72
2023/12/09 11:25:12;;;;;;;11.02;2.95;;;;;;;;;;5059941;28;20036;-72
2023/12/09 11:27:38;;;;;;;12.32;3.30;;;;;;;;;;5064424;28;20108;-72
2023/12/09 11:30:05;;;;;;;10.80;2.70;;;;;;;;;;5056891;28;20441;-72
2023/12/09 11:32:31;;;;;;;9.05;3.05;;;;;;;;;;5057111;28;20422;-72
2023/12/09 11:34:58;;;;;;;10.57;2.85;;;;;;;;;;5056089;28;20029;-72
2023/12/09 11:37:28;;;;;;;9.15;3.15;;;;;;;;;;5054853;28;20043;-72
2023/12/09 11:39:55;;;;;;;7.97;2.95;;;;;;;;;;5056907;28;20052;-71
2023/12/09 11:42:22;;;;;;;10.23;2.90;;;;;;;;;;5058218;28;20040;-71
2023/12/09 11:44:48;;;;;;;10.27;2.83;;;;;;;;;;5070176;28;20539;-71
2023/12/09 11:47:14;;;;;;;8.25;2.60;;;;;;;;;;5052406;28;20415;-71
2023/12/09 11:49:41;;;;;;;7.10;2.35;;;;;;;;;;5052773;28;20055;-71
2023/12/09 11:52:08;;;;;;;13.30;3.20;;;;;;;;;;5061348;28;20051;-72
2023/12/09 11:54:34;;;;;;;7.32;2.40;;;;;;;;;;5059483;28;20403;-72
2023/12/09 11:57:00;;;;;;;11.35;2.35;;;;;;;;;;5050232;28;20064;-72
2023/12/09 11:59:26;;;;;;;14.75;2.90;;;;;;;;;;5058359;28;20449;-72
2023/12/09 12:01:52;;;;;;;8.98;2.15;;;;;;;;;;5062451;28;20041;-71
2023/12/09 12:04:18;;;;;;;10.52;2.78;;;;;;;;;;5066782;28;20131;-71
2023/12/09 12:06:44;;;;;;;10.27;2.85;;;;;;;;;;5056593;28;20037;-71
2023/12/09 12:09:10;;;;;;;12.90;2.67;;;;;;;;;;5057837;28;20029;-72
2023/12/09 12:11:36;;;;;;;7.00;2.75;;;;;;;;;;5053561;28;20029;-72
2023/12/09 12:14:04;;;;;;;10.50;2.45;;;;;;;;;;5062049;28;20037;-72
2023/12/09 12:16:30;;;;;;;7.72;2.30;;;;;;;;;;5068608;28;20464;-72
2023/12/09 12:18:56;;;;;;;6.18;2.67;;;;;;;;;;5053382;28;20563;-72
2023/12/09 12:21:22;;;;;;;8.30;2.40;;;;;;;;;;5053256;28;20376;-72
2023/12/09 12:23:52;;;;;;;9.13;2.40;;;;;;;;;;5057917;28;20040;-72
2023/12/09 12:26:18;;;;;;;7.05;2.08;;;;;;;;;;5061975;28;20168;-72
2023/12/09 12:28:49;;;;;;;7.80;2.50;;;;;;;;;;5062931;28;20036;-72
2023/12/09 12:31:15;;;;;;;10.40;2.33;;;;;;;;;;5051027;28;20044;-72
2023/12/09 12:33:41;;;;;;;9.70;2.63;;;;;;;;;;5056553;28;20377;-72
2023/12/09 12:36:07;;;;;;;6.63;2.08;;;;;;;;;;5054555;28;20029;-72
2023/12/09 12:38:34;;;;;;;8.57;2.22;;;;;;;;;;5064120;28;20048;-72
2023/12/09 12:41:00;;;;;;;9.95;2.45;;;;;;;;;;5064808;28;20234;-72
2023/12/09 12:43:30;;;;;;;9.63;2.13;;;;;;;;;;5066853;28;20028;-72
2023/12/09 12:45:58;;;;;;;15.23;2.72;;;;;;;;;;5060159;28;20044;-72
2023/12/09 12:48:23;;;;;;;11.90;2.83;;;;;;;;;;5053471;28;20131;-72
2023/12/09 12:50:50;;;;;;;8.02;2.10;;;;;;;;;;5050916;28;20428;-72
2023/12/09 12:53:17;;;;;;;9.85;2.55;;;;;;;;;;5053161;28;20423;-72
2023/12/09 12:55:44;;;;;;;9.48;2.40;;;;;;;;;;5055682;28;20411;-72
2023/12/09 12:58:10;;;;;;;9.05;2.35;;;;;;;;;;5052987;28;20069;-72
2023/12/09 13:00:36;;;;;;;10.52;2.35;;;;;;;;;;5052644;28;20514;-72
2023/12/09 13:03:02;;;;;;;8.32;2.22;;;;;;;;;;5052718;28;20045;-72
2023/12/09 13:05:28;;;;;;;8.98;2.70;;;;;;;;;;5053218;28;20044;-72
2023/12/09 13:07:54;;;;;;;6.68;2.72;;;;;;;;;;5055633;28;20029;-72
2023/12/09 13:10:20;;;;;;;12.65;3.03;;;;;;;;;;5058164;28;20041;-72
2023/12/09 13:12:46;;;;;;;14.18;4.07;;;;;;;;;;5056356;28;20044;-72
2023/12/09 13:15:13;;;;;;;13.13;3.50;;;;;;;;;;5051082;28;20449;-72
2023/12/09 13:17:39;;;;;;;13.90;3.00;;;;;;;;;;5054439;28;20033;-72
2023/12/09 13:20:05;;;;;;;10.82;3.40;;;;;;;;;;5051948;28;20049;-72
2023/12/09 13:22:31;;;;;;;14.10;4.30;;;;;;;;;;5050066;28;20375;-72
2023/12/09 13:24:58;;;;;;;13.10;4.03;;;;;;;;;;5052651;28;20033;-72
2023/12/09 13:27:24;;;;;;;12.60;4.20;;;;;;;;;;5073219;22;20033;-69
2023/12/09 13:29:49;;;;;;;10.80;3.97;;;;;;;;;;5098666;28;20039;-71
2023/12/09 13:32:15;;;;;;;12.63;3.42;;;;;;;;;;5097279;28;20051;-70
2023/12/09 13:34:42;;;;;;;13.25;3.03;;;;;;;;;;5096377;28;20047;-70
2023/12/09 13:37:09;;;;;;;12.18;2.95;;;;;;;;;;5093322;28;20047;-71
2023/12/09 13:39:35;;;;;;;9.23;2.80;;;;;;;;;;5095439;28;20051;-70
2023/12/09 13:42:01;;;;;;;10.93;3.53;;;;;;;;;;5098941;28;20028;-70
2023/12/09 13:44:27;;;;;;;12.70;3.45;;;;;;;;;;5102241;28;20036;-69
2023/12/09 13:46:53;;;;;;;8.73;2.80;;;;;;;;;;5098890;28;20033;-71
2023/12/09 13:49:19;;;;;;;8.63;2.65;;;;;;;;;;5101943;27;20039;-71
2023/12/09 13:51:45;;;;;;;12.30;4.55;;;;;;;;;;5097554;28;20032;-71
2023/12/09 13:54:12;;;;;;;12.38;4.85;;;;;;;;;;5101288;28;20102;-71
2023/12/09 13:56:38;;;;;;;8.75;3.33;;;;;;;;;;5107199;28;20670;-71
2023/12/09 13:59:04;;;;;;;11.32;2.90;;;;;;;;;;5100774;28;20053;-71
2023/12/09 14:01:30;;;;;;;10.50;3.17;;;;;;;;;;5100348;28;20078;-71
2023/12/09 14:03:56;;;;;;;12.40;3.70;;;;;;;;;;5097805;28;20028;-71
2023/12/09 14:06:23;;;;;;;9.18;3.03;;;;;;;;;;5093973;28;20036;-72
2023/12/09 14:08:49;;;;;;;10.18;3.33;;;;;;;;;;5096379;28;20119;-71
2023/12/09 14:11:15;;;;;;;10.15;3.40;;;;;;;;;;5090684;28;20048;-72
2023/12/09 14:13:41;;;;;;;11.98;3.55;;;;;;;;;;5097841;28;20039;-71
2023/12/09 14:16:09;;;;;;;12.88;3.42;;;;;;;;;;5099840;28;20043;-72
2023/12/09 14:18:37;;;;;;;12.98;3.22;;;;;;;;;;5099693;28;20036;-71
2023/12/09 14:21:03;;;;;;;14.82;4.30;;;;;;;;;;5090985;28;20043;-71